createdAt,value
2019-03-13T00:01:18.901Z,40.00
2019-03-13T00:02:18.901Z,36.00
2019-03-13T00:04:12.449Z,36.00
2019-03-13T00:05:12.438Z,36.00
2019-03-13T00:07:05.640Z,28.00
2019-03-13T00:08:05.615Z,24.00
2019-03-13T00:09:59.424Z,24.00
2019-03-13T00:10:58.963Z,20.00
2019-03-13T00:12:52.304Z,24.00
2019-03-13T00:13:52.545Z,28.00
2019-03-13T00:15:45.883Z,32.00
2019-03-13T00:16:45.869Z,32.00
2019-03-13T00:18:39.011Z,32.00
2019-03-13T00:19:39.009Z,28.00
2019-03-13T00:21:32.092Z,28.00
2019-03-13T00:22:32.065Z,32.00
2019-03-13T00:24:25.198Z,32.00
2019-03-13T00:25:25.470Z,32.00
2019-03-13T00:27:18.782Z,36.00
2019-03-13T00:28:18.787Z,32.00
2019-03-13T00:30:12.119Z,36.00
2019-03-13T00:31:12.166Z,40.00
2019-03-13T00:33:06.403Z,44.00
2019-03-13T00:34:06.156Z,44.00
2019-03-13T00:35:59.788Z,44.00
2019-03-13T00:36:59.760Z,40.00
2019-03-13T00:38:53.093Z,36.00
2019-03-13T00:39:52.846Z,40.00
2019-03-13T00:41:45.994Z,40.00
2019-03-13T00:42:46.014Z,36.00
2019-03-13T00:44:39.563Z,32.00
2019-03-13T00:45:39.143Z,36.00
2019-03-13T00:47:32.549Z,36.00
2019-03-13T00:48:32.468Z,40.00
2019-03-13T00:50:26.034Z,44.00
2019-03-13T00:51:26.451Z,56.00
2019-03-13T00:53:19.381Z,108.00
2019-03-13T00:54:19.383Z,108.00
2019-03-13T00:56:12.970Z,108.00
2019-03-13T00:57:12.696Z,112.00
2019-03-13T00:59:06.199Z,148.00
2019-03-13T01:00:05.842Z,148.00
2019-03-13T01:01:59.434Z,156.00
2019-03-13T01:02:59.469Z,152.00
2019-03-13T01:04:52.821Z,144.00
2019-03-13T01:05:52.650Z,140.00
2019-03-13T01:07:46.121Z,124.00
2019-03-13T01:08:46.095Z,116.00
2019-03-13T01:10:39.480Z,100.00
2019-03-13T01:11:39.534Z,96.00
2019-03-13T01:13:33.065Z,92.00
2019-03-13T01:14:32.618Z,88.00
2019-03-13T01:16:25.967Z,72.00
2019-03-13T01:17:26.018Z,56.00
2019-03-13T01:19:19.520Z,56.00
2019-03-13T01:20:19.600Z,52.00
2019-03-13T01:22:12.945Z,52.00
2019-03-13T01:23:12.964Z,52.00
2019-03-13T01:25:06.474Z,52.00
2019-03-13T01:26:06.266Z,52.00
2019-03-13T01:27:06.289Z,56.00
2019-03-13T01:28:06.231Z,60.00
2019-03-13T01:29:05.980Z,60.00
2019-03-13T01:30:05.977Z,72.00
2019-03-13T01:31:06.255Z,72.00
2019-03-13T01:32:06.244Z,72.00
2019-03-13T01:33:06.656Z,68.00
2019-03-13T01:34:06.178Z,68.00
2019-03-13T01:35:06.246Z,60.00
2019-03-13T01:36:05.946Z,60.00
2019-03-13T01:37:05.921Z,64.00
2019-03-13T01:38:05.921Z,64.00
2019-03-13T01:39:06.167Z,84.00
2019-03-13T01:40:05.943Z,88.00
2019-03-13T01:41:05.892Z,100.00
2019-03-13T01:42:06.190Z,88.00
2019-03-13T01:43:05.920Z,84.00
2019-03-13T01:44:06.131Z,108.00
2019-03-13T01:45:06.096Z,112.00
2019-03-13T01:46:06.136Z,112.00
2019-03-13T01:47:06.125Z,104.00
2019-03-13T01:48:06.110Z,108.00
2019-03-13T01:49:06.101Z,100.00
2019-03-13T01:50:05.880Z,96.00
2019-03-13T01:51:05.862Z,96.00
2019-03-13T01:52:06.131Z,100.00
2019-03-13T01:53:06.072Z,100.00
2019-03-13T01:54:05.817Z,92.00
2019-03-13T01:55:05.794Z,84.00
2019-03-13T01:56:06.075Z,88.00
2019-03-13T01:57:05.771Z,88.00
2019-03-13T01:58:06.025Z,84.00
2019-03-13T01:59:06.049Z,84.00
2019-03-13T02:00:05.744Z,84.00
2019-03-13T02:01:06.039Z,84.00
2019-03-13T02:02:05.966Z,92.00
2019-03-13T02:03:05.765Z,96.00
2019-03-13T02:04:05.722Z,92.00
2019-03-13T02:05:05.984Z,88.00
2019-03-13T02:06:05.776Z,96.00
2019-03-13T02:07:05.713Z,92.00
2019-03-13T02:08:05.925Z,80.00
2019-03-13T02:09:05.994Z,68.00
2019-03-13T02:10:05.725Z,64.00
2019-03-13T02:11:05.942Z,64.00
2019-03-13T02:12:05.659Z,60.00
2019-03-13T02:13:05.940Z,60.00
2019-03-13T02:14:05.886Z,52.00
2019-03-13T02:15:05.677Z,48.00
2019-03-13T02:16:05.643Z,44.00
2019-03-13T02:17:05.942Z,40.00
2019-03-13T02:18:05.669Z,40.00
2019-03-13T02:19:05.909Z,36.00
2019-03-13T02:20:05.856Z,36.00
2019-03-13T02:21:05.872Z,32.00
2019-03-13T02:22:05.852Z,32.00
2019-03-13T02:23:05.624Z,32.00
2019-03-13T02:24:05.849Z,32.00
2019-03-13T02:25:05.866Z,28.00
2019-03-13T02:26:05.588Z,32.00
2019-03-13T02:27:05.589Z,32.00
2019-03-13T02:28:05.575Z,36.00
2019-03-13T02:29:05.565Z,36.00
2019-03-13T02:30:05.526Z,40.00
2019-03-13T02:31:05.812Z,40.00
2019-03-13T02:32:05.764Z,40.00
2019-03-13T02:33:05.562Z,184.00
2019-03-13T02:34:06.106Z,192.00
2019-03-13T02:35:05.757Z,188.00
2019-03-13T02:36:05.752Z,188.00
2019-03-13T02:37:05.521Z,192.00
2019-03-13T02:38:05.702Z,192.00
2019-03-13T02:39:05.483Z,192.00
2019-03-13T02:40:05.509Z,196.00
2019-03-13T02:41:05.748Z,204.00
2019-03-13T02:42:05.459Z,216.00
2019-03-13T02:43:05.715Z,224.00
2019-03-13T02:44:05.711Z,236.00
2019-03-13T02:45:05.414Z,232.00
2019-03-13T02:46:05.413Z,244.00
2019-03-13T02:47:05.643Z,248.00
2019-03-13T02:48:05.682Z,248.00
2019-03-13T02:49:05.433Z,260.00
2019-03-13T02:50:05.376Z,268.00
2019-03-13T02:51:05.381Z,252.00
2019-03-13T02:52:05.595Z,244.00
2019-03-13T02:53:05.591Z,240.00
2019-03-13T02:54:05.632Z,248.00
2019-03-13T02:55:05.346Z,244.00
2019-03-13T02:56:05.382Z,256.00
2019-03-13T02:57:05.610Z,264.00
2019-03-13T02:58:05.617Z,280.00
2019-03-13T02:59:05.361Z,268.00
2019-03-13T03:00:05.328Z,268.00
2019-03-13T03:01:05.600Z,256.00
2019-03-13T03:02:05.332Z,240.00
2019-03-13T03:03:05.584Z,208.00
2019-03-13T03:04:05.291Z,212.00
2019-03-13T03:05:05.541Z,220.00
2019-03-13T03:06:05.254Z,248.00
2019-03-13T03:07:05.532Z,268.00
2019-03-13T03:08:05.273Z,268.00
2019-03-13T03:09:05.265Z,268.00
2019-03-13T03:10:05.483Z,260.00
2019-03-13T03:11:05.505Z,244.00
2019-03-13T03:12:05.507Z,240.00
2019-03-13T03:13:05.485Z,240.00
2019-03-13T03:14:05.197Z,228.00
2019-03-13T03:15:05.462Z,228.00
2019-03-13T03:16:05.468Z,236.00
2019-03-13T03:17:05.470Z,232.00
2019-03-13T03:18:05.441Z,228.00
2019-03-13T03:19:05.480Z,224.00
2019-03-13T03:20:05.432Z,220.00
2019-03-13T03:21:05.165Z,224.00
2019-03-13T03:22:05.177Z,232.00
2019-03-13T03:23:05.161Z,240.00
2019-03-13T03:24:05.390Z,236.00
2019-03-13T03:25:05.113Z,232.00
2019-03-13T03:26:05.137Z,228.00
2019-03-13T03:27:05.396Z,240.00
2019-03-13T03:28:05.138Z,240.00
2019-03-13T03:29:05.321Z,232.00
2019-03-13T03:30:05.326Z,212.00
2019-03-13T03:31:05.126Z,236.00
2019-03-13T03:32:05.321Z,236.00
2019-03-13T03:33:05.099Z,248.00
2019-03-13T03:34:05.129Z,244.00
2019-03-13T03:35:05.980Z,224.00
2019-03-13T03:36:05.318Z,224.00
2019-03-13T03:37:05.320Z,260.00
2019-03-13T03:38:05.293Z,268.00
2019-03-13T03:39:05.317Z,260.00
2019-03-13T03:40:05.115Z,260.00
2019-03-13T03:41:05.083Z,256.00
2019-03-13T03:42:05.245Z,256.00
2019-03-13T03:43:05.263Z,260.00
2019-03-13T03:44:05.251Z,264.00
2019-03-13T03:45:05.220Z,272.00
2019-03-13T03:46:04.992Z,264.00
2019-03-13T03:47:05.136Z,256.00
2019-03-13T03:48:04.968Z,248.00
2019-03-13T03:49:05.198Z,212.00
2019-03-13T03:50:05.211Z,248.00
2019-03-13T03:51:05.193Z,260.00
2019-03-13T03:52:05.199Z,244.00
2019-03-13T03:53:04.959Z,232.00
2019-03-13T03:54:05.333Z,236.00
2019-03-13T03:55:04.921Z,228.00
2019-03-13T03:56:05.126Z,224.00
2019-03-13T03:57:04.947Z,224.00
2019-03-13T03:58:04.873Z,220.00
2019-03-13T03:59:04.869Z,220.00
2019-03-13T04:00:05.135Z,212.00
2019-03-13T04:01:04.893Z,220.00
2019-03-13T04:02:05.159Z,240.00
2019-03-13T04:03:05.018Z,244.00
2019-03-13T04:04:04.869Z,240.00
2019-03-13T04:05:04.840Z,228.00
2019-03-13T04:06:05.091Z,244.00
2019-03-13T04:07:05.059Z,240.00
2019-03-13T04:08:05.084Z,240.00
2019-03-13T04:09:04.791Z,240.00
2019-03-13T04:10:04.799Z,240.00
2019-03-13T04:11:05.129Z,236.00
2019-03-13T04:12:04.843Z,212.00
2019-03-13T04:13:04.774Z,204.00
2019-03-13T04:14:05.040Z,196.00
2019-03-13T04:15:04.782Z,188.00
2019-03-13T04:16:04.764Z,184.00
2019-03-13T04:17:04.792Z,180.00
2019-03-13T04:18:04.978Z,180.00
2019-03-13T04:19:05.012Z,176.00
2019-03-13T04:20:04.789Z,176.00
2019-03-13T04:21:04.948Z,172.00
2019-03-13T04:22:04.994Z,176.00
2019-03-13T04:23:04.806Z,176.00
2019-03-13T04:24:04.831Z,172.00
2019-03-13T04:25:04.929Z,176.00
2019-03-13T04:26:04.676Z,176.00
2019-03-13T04:27:05.509Z,180.00
2019-03-13T04:28:04.997Z,180.00
2019-03-13T04:29:07.487Z,180.00
2019-03-13T04:30:04.705Z,180.00
2019-03-13T04:31:04.908Z,180.00
2019-03-13T04:32:04.629Z,184.00
2019-03-13T04:33:04.881Z,180.00
2019-03-13T04:34:04.791Z,180.00
2019-03-13T04:35:04.590Z,184.00
2019-03-13T04:36:04.615Z,184.00
2019-03-13T04:37:04.921Z,184.00
2019-03-13T04:38:04.668Z,188.00
2019-03-13T04:39:04.592Z,184.00
2019-03-13T04:40:04.587Z,184.00
2019-03-13T04:41:04.562Z,188.00
2019-03-13T04:42:04.571Z,188.00
2019-03-13T04:43:04.601Z,184.00
2019-03-13T04:44:04.771Z,180.00
2019-03-13T04:45:04.755Z,184.00
2019-03-13T04:46:04.555Z,184.00
2019-03-13T04:47:04.519Z,184.00
2019-03-13T04:48:04.451Z,180.00
2019-03-13T04:49:04.803Z,188.00
2019-03-13T04:50:04.478Z,204.00
2019-03-13T04:51:04.521Z,212.00
2019-03-13T04:52:04.787Z,208.00
2019-03-13T04:53:04.725Z,208.00
2019-03-13T04:54:04.738Z,208.00
2019-03-13T04:55:04.702Z,204.00
2019-03-13T04:56:04.720Z,204.00
2019-03-13T04:57:04.480Z,212.00
2019-03-13T04:58:04.641Z,216.00
2019-03-13T04:59:04.681Z,216.00
2019-03-13T05:00:04.409Z,216.00
2019-03-13T05:01:04.423Z,212.00
2019-03-13T05:02:04.774Z,196.00
2019-03-13T05:03:04.613Z,204.00
2019-03-13T05:04:04.632Z,204.00
2019-03-13T05:05:04.607Z,200.00
2019-03-13T05:06:04.401Z,204.00
2019-03-13T05:07:04.544Z,204.00
2019-03-13T05:08:04.385Z,200.00
2019-03-13T05:09:04.565Z,196.00
2019-03-13T05:10:04.587Z,196.00
2019-03-13T05:11:04.312Z,192.00
2019-03-13T05:12:04.568Z,188.00
2019-03-13T05:13:04.453Z,188.00
2019-03-13T05:14:04.312Z,188.00
2019-03-13T05:15:04.525Z,184.00
2019-03-13T05:16:04.533Z,184.00
2019-03-13T05:17:04.560Z,188.00
2019-03-13T05:18:04.565Z,184.00
2019-03-13T05:19:04.562Z,188.00
2019-03-13T05:20:04.528Z,188.00
2019-03-13T05:21:04.232Z,200.00
2019-03-13T05:22:04.481Z,192.00
2019-03-13T05:23:04.484Z,184.00
2019-03-13T05:24:04.248Z,180.00
2019-03-13T05:25:04.543Z,180.00
2019-03-13T05:26:04.494Z,176.00
2019-03-13T05:27:04.229Z,180.00
2019-03-13T05:28:04.188Z,180.00
2019-03-13T05:29:04.200Z,180.00
2019-03-13T05:30:04.300Z,172.00
2019-03-13T05:31:04.182Z,176.00
2019-03-13T05:32:04.169Z,176.00
2019-03-13T05:33:04.146Z,176.00
2019-03-13T05:34:04.346Z,176.00
2019-03-13T05:35:04.460Z,188.00
2019-03-13T05:36:04.403Z,188.00
2019-03-13T05:37:04.440Z,176.00
2019-03-13T05:38:04.297Z,180.00
2019-03-13T05:39:04.092Z,176.00
2019-03-13T05:40:04.085Z,176.00
2019-03-13T05:42:35.894Z,176.00
2019-03-13T05:43:35.961Z,176.00
2019-03-13T05:45:29.074Z,184.00
2019-03-13T05:46:29.591Z,184.00
2019-03-13T05:48:22.700Z,192.00
2019-03-13T05:49:22.666Z,196.00
2019-03-13T05:51:16.009Z,188.00
2019-03-13T05:52:15.970Z,188.00
2019-03-13T05:54:09.409Z,180.00
2019-03-13T05:55:09.115Z,188.00
2019-03-13T05:57:02.536Z,188.00
2019-03-13T05:58:02.732Z,184.00
2019-03-13T05:59:56.606Z,180.00
2019-03-13T06:00:56.059Z,176.00
2019-03-13T06:02:49.202Z,184.00
2019-03-13T06:03:49.405Z,180.00
2019-03-13T06:05:43.115Z,188.00
2019-03-13T06:06:42.814Z,188.00
2019-03-13T06:08:36.014Z,188.00
2019-03-13T06:09:36.774Z,188.00
2019-03-13T06:10:36.146Z,176.00
2019-03-13T06:11:36.328Z,180.00
2019-03-13T06:12:36.101Z,180.00
2019-03-13T06:13:35.876Z,184.00
2019-03-13T06:14:36.088Z,192.00
2019-03-13T06:15:36.086Z,196.00
2019-03-13T06:16:35.811Z,192.00
2019-03-13T06:17:35.842Z,196.00
2019-03-13T06:18:36.037Z,192.00
2019-03-13T06:19:35.776Z,196.00
2019-03-13T06:20:36.064Z,184.00
2019-03-13T06:21:36.017Z,184.00
2019-03-13T06:23:35.861Z,188.00
2019-03-13T06:24:35.989Z,184.00
2019-03-13T06:27:08.040Z,188.00
2019-03-13T06:28:08.009Z,184.00
2019-03-13T06:30:01.418Z,184.00
2019-03-13T06:31:01.447Z,176.00
2019-03-13T06:32:55.610Z,180.00
2019-03-13T06:33:54.488Z,172.00
2019-03-13T06:35:47.874Z,180.00
2019-03-13T06:36:48.065Z,180.00
2019-03-13T06:38:41.779Z,180.00
2019-03-13T06:39:41.408Z,180.00
2019-03-13T06:41:34.041Z,184.00
2019-03-13T06:42:34.324Z,180.00
2019-03-13T06:44:27.582Z,184.00
2019-03-13T06:45:27.633Z,188.00
2019-03-13T06:47:20.919Z,180.00
2019-03-13T06:48:21.027Z,180.00
2019-03-13T06:50:15.924Z,180.00
2019-03-13T06:51:14.903Z,180.00
2019-03-13T06:53:08.342Z,176.00
2019-03-13T06:54:08.259Z,176.00
2019-03-13T06:57:41.119Z,188.00
2019-03-13T06:58:40.924Z,188.00
2019-03-13T07:00:34.379Z,184.00
2019-03-13T07:01:34.498Z,184.00
2019-03-13T07:03:27.816Z,184.00
2019-03-13T07:04:27.853Z,184.00
2019-03-13T07:06:20.923Z,184.00
2019-03-13T07:07:21.170Z,184.00
2019-03-13T07:09:14.735Z,184.00
2019-03-13T07:10:14.557Z,184.00
2019-03-13T07:11:14.783Z,184.00
2019-03-13T07:12:14.246Z,180.00
2019-03-13T07:13:14.502Z,184.00
2019-03-13T07:14:14.490Z,176.00
2019-03-13T07:15:14.208Z,176.00
2019-03-13T07:16:14.487Z,172.00
2019-03-13T07:17:14.432Z,176.00
2019-03-13T07:18:14.184Z,172.00
2019-03-13T07:19:14.213Z,172.00
2019-03-13T07:20:14.405Z,172.00
2019-03-13T07:21:14.171Z,168.00
2019-03-13T07:22:14.150Z,172.00
2019-03-13T07:23:14.385Z,180.00
2019-03-13T07:24:14.136Z,176.00
2019-03-13T07:25:14.392Z,172.00
2019-03-13T07:26:14.156Z,176.00
2019-03-13T07:27:14.117Z,176.00
2019-03-13T07:28:14.353Z,168.00
2019-03-13T07:29:14.367Z,168.00
2019-03-13T07:30:14.092Z,172.00
2019-03-13T07:31:14.319Z,168.00
2019-03-13T07:32:14.338Z,172.00
2019-03-13T07:33:14.115Z,172.00
2019-03-13T07:34:14.062Z,180.00
2019-03-13T07:35:14.114Z,184.00
2019-03-13T07:36:14.305Z,184.00
2019-03-13T07:37:14.069Z,184.00
2019-03-13T07:38:15.645Z,180.00
2019-03-13T07:39:14.009Z,176.00
2019-03-13T07:40:14.027Z,176.00
2019-03-13T07:41:14.285Z,176.00
2019-03-13T07:42:13.999Z,172.00
2019-03-13T07:43:14.245Z,172.00
2019-03-13T07:44:14.261Z,176.00
2019-03-13T07:45:14.260Z,176.00
2019-03-13T07:46:14.242Z,176.00
2019-03-13T07:47:13.986Z,172.00
2019-03-13T07:48:14.213Z,168.00
2019-03-13T07:49:13.942Z,172.00
2019-03-13T07:50:13.972Z,168.00
2019-03-13T07:51:14.209Z,168.00
2019-03-13T07:52:13.917Z,168.00
2019-03-13T07:53:14.206Z,168.00
2019-03-13T07:54:14.126Z,164.00
2019-03-13T07:55:13.917Z,172.00
2019-03-13T07:56:13.880Z,168.00
2019-03-13T07:57:13.875Z,168.00
2019-03-13T07:58:13.912Z,168.00
2019-03-13T07:59:13.873Z,168.00
2019-03-13T08:00:13.861Z,172.00
2019-03-13T08:01:13.858Z,176.00
2019-03-13T08:02:13.871Z,180.00
2019-03-13T08:03:13.830Z,180.00
2019-03-13T08:04:14.077Z,184.00
2019-03-13T08:05:14.088Z,184.00
2019-03-13T08:06:14.080Z,184.00
2019-03-13T08:07:14.088Z,188.00
2019-03-13T08:08:13.823Z,192.00
2019-03-13T08:09:14.046Z,188.00
2019-03-13T08:10:13.773Z,188.00
2019-03-13T08:11:13.994Z,184.00
2019-03-13T08:12:13.748Z,188.00
2019-03-13T08:13:14.068Z,188.00
2019-03-13T08:14:13.773Z,184.00
2019-03-13T08:15:14.028Z,176.00
2019-03-13T08:16:13.746Z,176.00
2019-03-13T08:17:13.988Z,176.00
2019-03-13T08:18:13.945Z,176.00
2019-03-13T08:19:13.723Z,176.00
2019-03-13T08:20:13.948Z,176.00
2019-03-13T08:21:13.676Z,176.00
2019-03-13T08:22:13.931Z,176.00
2019-03-13T08:23:13.700Z,176.00
2019-03-13T08:24:13.712Z,180.00
2019-03-13T08:25:13.681Z,180.00
2019-03-13T08:26:13.880Z,176.00
2019-03-13T08:27:13.872Z,180.00
2019-03-13T08:28:13.856Z,180.00
2019-03-13T08:29:13.894Z,176.00
2019-03-13T08:30:13.641Z,172.00
2019-03-13T08:31:13.618Z,172.00
2019-03-13T08:32:13.854Z,176.00
2019-03-13T08:33:13.852Z,176.00
2019-03-13T08:34:13.851Z,176.00
2019-03-13T08:35:13.855Z,172.00
2019-03-13T08:36:13.559Z,172.00
2019-03-13T08:37:13.552Z,168.00
2019-03-13T08:38:13.826Z,176.00
2019-03-13T08:39:13.771Z,176.00
2019-03-13T08:40:13.577Z,176.00
2019-03-13T08:41:13.594Z,168.00
2019-03-13T08:42:13.541Z,172.00
2019-03-13T08:43:13.554Z,168.00
2019-03-13T08:44:13.548Z,172.00
2019-03-13T08:45:13.499Z,172.00
2019-03-13T08:46:13.768Z,172.00
2019-03-13T08:47:13.501Z,172.00
2019-03-13T08:48:13.732Z,172.00
2019-03-13T08:49:13.755Z,172.00
2019-03-13T08:50:13.447Z,168.00
2019-03-13T08:51:13.442Z,172.00
2019-03-13T08:52:13.471Z,168.00
2019-03-13T08:53:13.430Z,168.00
2019-03-13T08:54:13.677Z,164.00
2019-03-13T08:55:13.658Z,168.00
2019-03-13T08:56:13.447Z,164.00
2019-03-13T08:57:13.627Z,168.00
2019-03-13T08:58:13.421Z,168.00
2019-03-13T08:59:13.610Z,168.00
2019-03-13T09:00:13.366Z,168.00
2019-03-13T09:01:13.626Z,160.00
2019-03-13T09:02:13.631Z,164.00
2019-03-13T09:03:13.394Z,164.00
2019-03-13T09:04:13.325Z,164.00
2019-03-13T09:05:13.333Z,160.00
2019-03-13T09:06:13.313Z,164.00
2019-03-13T09:07:13.306Z,160.00
2019-03-13T09:08:13.555Z,160.00
2019-03-13T09:09:13.329Z,160.00
2019-03-13T09:10:13.288Z,160.00
2019-03-13T09:11:13.540Z,156.00
2019-03-13T09:12:13.316Z,160.00
2019-03-13T09:13:13.483Z,160.00
2019-03-13T09:14:13.308Z,160.00
2019-03-13T09:15:13.500Z,164.00
2019-03-13T09:16:13.272Z,160.00
2019-03-13T09:17:13.220Z,160.00
2019-03-13T09:18:13.470Z,160.00
2019-03-13T09:19:13.206Z,156.00
2019-03-13T09:20:13.249Z,152.00
2019-03-13T09:21:13.229Z,156.00
2019-03-13T09:22:13.174Z,156.00
2019-03-13T09:23:13.412Z,152.00
2019-03-13T09:24:13.458Z,156.00
2019-03-13T09:25:13.158Z,160.00
2019-03-13T09:26:13.149Z,156.00
2019-03-13T09:27:13.425Z,160.00
2019-03-13T09:28:13.164Z,156.00
2019-03-13T09:29:13.154Z,152.00
2019-03-13T09:30:13.117Z,160.00
2019-03-13T09:31:13.405Z,156.00
2019-03-13T09:32:13.394Z,156.00
2019-03-13T09:33:13.355Z,160.00
2019-03-13T09:34:13.336Z,156.00
2019-03-13T09:35:13.324Z,156.00
2019-03-13T09:36:13.361Z,156.00
2019-03-13T09:37:13.094Z,156.00
2019-03-13T09:38:13.294Z,156.00
2019-03-13T09:39:13.046Z,156.00
2019-03-13T09:40:13.035Z,156.00
2019-03-13T09:41:13.020Z,156.00
2019-03-13T09:42:13.317Z,160.00
2019-03-13T09:43:13.046Z,156.00
2019-03-13T09:44:37.434Z,156.00
2019-03-13T09:45:13.045Z,156.00
2019-03-13T09:46:12.975Z,160.00
2019-03-13T09:47:13.241Z,152.00
2019-03-13T09:48:13.229Z,156.00
2019-03-13T09:49:14.526Z,152.00
2019-03-13T09:50:12.987Z,156.00
2019-03-13T09:51:13.173Z,152.00
2019-03-13T09:52:13.220Z,156.00
2019-03-13T09:53:12.934Z,156.00
2019-03-13T09:54:13.170Z,156.00
2019-03-13T09:55:13.175Z,152.00
2019-03-13T09:56:12.916Z,152.00
2019-03-13T09:57:12.902Z,152.00
2019-03-13T09:58:12.880Z,152.00
2019-03-13T09:59:12.905Z,152.00
2019-03-13T10:00:12.865Z,152.00
2019-03-13T10:01:12.865Z,156.00
2019-03-13T10:02:13.111Z,152.00
2019-03-13T10:03:13.088Z,156.00
2019-03-13T10:04:13.150Z,152.00
2019-03-13T10:05:12.871Z,156.00
2019-03-13T10:06:13.074Z,152.00
2019-03-13T10:07:12.848Z,152.00
2019-03-13T10:08:12.801Z,152.00
2019-03-13T10:09:13.060Z,152.00
2019-03-13T10:10:13.018Z,152.00
2019-03-13T10:11:12.773Z,152.00
2019-03-13T10:12:12.823Z,152.00
2019-03-13T10:13:13.006Z,152.00
2019-03-13T10:14:12.797Z,152.00
2019-03-13T10:15:13.025Z,152.00
2019-03-13T10:16:12.775Z,156.00
2019-03-13T10:17:12.992Z,152.00
2019-03-13T10:18:12.776Z,152.00
2019-03-13T10:19:12.742Z,152.00
2019-03-13T10:20:12.734Z,152.00
2019-03-13T10:21:12.715Z,152.00
2019-03-13T10:22:12.720Z,156.00
2019-03-13T10:23:12.963Z,152.00
2019-03-13T10:24:12.943Z,152.00
2019-03-13T10:25:12.921Z,156.00
2019-03-13T10:26:12.657Z,152.00
2019-03-13T10:27:12.644Z,152.00
2019-03-13T10:28:12.640Z,152.00
2019-03-13T10:29:12.653Z,152.00
2019-03-13T10:30:12.678Z,148.00
2019-03-13T10:31:12.882Z,152.00
2019-03-13T10:32:12.876Z,148.00
2019-03-13T10:33:13.038Z,148.00
2019-03-13T10:34:12.591Z,152.00
2019-03-13T10:35:12.843Z,152.00
2019-03-13T10:36:12.802Z,152.00
2019-03-13T10:37:12.599Z,152.00
2019-03-13T10:38:14.098Z,152.00
2019-03-13T10:39:12.549Z,152.00
2019-03-13T10:40:12.544Z,148.00
2019-03-13T10:41:12.526Z,148.00
2019-03-13T10:42:12.824Z,152.00
2019-03-13T10:43:12.788Z,148.00
2019-03-13T10:44:12.747Z,148.00
2019-03-13T10:45:12.552Z,148.00
2019-03-13T10:47:44.763Z,148.00
2019-03-13T10:48:44.589Z,152.00
2019-03-13T10:50:37.899Z,148.00
2019-03-13T10:51:37.969Z,148.00
2019-03-13T10:53:31.520Z,148.00
2019-03-13T10:54:31.219Z,148.00
2019-03-13T10:56:24.597Z,152.00
2019-03-13T10:57:24.617Z,148.00
2019-03-13T10:59:18.391Z,148.00
2019-03-13T11:00:18.236Z,152.00
2019-03-13T11:02:12.379Z,148.00
2019-03-13T11:03:12.132Z,152.00
2019-03-13T11:05:06.005Z,148.00
2019-03-13T11:06:05.461Z,144.00
2019-03-13T11:07:58.352Z,148.00
2019-03-13T11:08:58.330Z,148.00
2019-03-13T11:10:52.192Z,148.00
2019-03-13T11:11:51.914Z,148.00
2019-03-13T11:13:45.037Z,148.00
2019-03-13T11:14:45.063Z,144.00
2019-03-13T11:16:38.925Z,148.00
2019-03-13T11:17:38.411Z,148.00
2019-03-13T11:19:32.030Z,148.00
2019-03-13T11:20:32.014Z,148.00
2019-03-13T11:22:25.556Z,148.00
2019-03-13T11:23:25.920Z,144.00
2019-03-13T11:25:19.518Z,148.00
2019-03-13T11:26:19.374Z,144.00
2019-03-13T11:28:14.139Z,148.00
2019-03-13T11:29:13.484Z,152.00
2019-03-13T11:31:06.383Z,152.00
2019-03-13T11:32:06.102Z,152.00
2019-03-13T11:34:01.353Z,148.00
2019-03-13T11:35:00.751Z,152.00
2019-03-13T11:36:54.046Z,148.00
